createdAt,value
2024-02-26T00:00:43.037Z,99948.91
2024-02-26T00:01:44.863Z,99951.34
2024-02-26T00:02:46.497Z,99955.53
2024-02-26T00:03:48.477Z,99954.50
2024-02-26T00:04:51.154Z,99946.78
2024-02-26T00:05:53.041Z,99951.16
2024-02-26T00:06:55.915Z,99953.00
2024-02-26T00:07:57.660Z,99942.47
2024-02-26T00:08:59.405Z,99941.03
2024-02-26T00:10:01.143Z,99944.84
2024-02-26T00:11:02.786Z,99941.00
2024-02-26T00:12:05.333Z,99946.84
2024-02-26T00:13:06.932Z,99945.50
2024-02-26T00:14:08.501Z,99946.91
2024-02-26T00:15:12.171Z,99950.34
2024-02-26T00:16:13.816Z,99949.28
2024-02-26T00:17:15.418Z,99948.22
2024-02-26T00:18:17.140Z,99953.06
2024-02-26T00:19:18.961Z,99948.72
2024-02-26T00:20:20.707Z,99947.44
2024-02-26T00:21:22.390Z,99943.44
2024-02-26T00:22:24.006Z,99938.00
2024-02-26T00:23:25.770Z,99935.56
2024-02-26T00:24:27.420Z,99930.63
2024-02-26T00:25:29.035Z,99933.97
2024-02-26T00:26:30.667Z,99935.81
2024-02-26T00:27:32.272Z,99932.66
2024-02-26T00:28:33.853Z,99938.66
2024-02-26T00:29:35.714Z,99937.00
2024-02-26T00:30:37.344Z,99934.00
2024-02-26T00:31:39.275Z,99933.50
2024-02-26T00:32:41.080Z,99935.16
2024-02-26T00:33:42.881Z,99934.66
2024-02-26T00:34:44.857Z,99924.69
2024-02-26T00:35:46.475Z,99927.63
2024-02-26T00:36:48.045Z,99924.28
2024-02-26T00:37:49.692Z,99929.91
2024-02-26T00:38:53.984Z,99928.28
2024-02-26T00:39:55.614Z,99930.31
2024-02-26T00:40:57.249Z,99927.28
2024-02-26T00:41:58.877Z,99930.13
2024-02-26T00:43:00.549Z,99935.63
2024-02-26T00:44:02.170Z,99927.88
2024-02-26T00:45:04.104Z,99930.63
2024-02-26T00:46:05.964Z,99927.28
2024-02-26T00:47:07.558Z,99925.59
2024-02-26T00:48:09.339Z,99925.28
2024-02-26T00:49:11.152Z,99924.09
2024-02-26T00:50:12.827Z,99920.63
2024-02-26T00:51:14.507Z,99921.88
2024-02-26T00:52:16.127Z,99919.13
2024-02-26T00:53:17.722Z,99917.50
2024-02-26T00:54:19.492Z,99918.00
2024-02-26T00:55:21.307Z,99915.84
2024-02-26T00:56:23.426Z,99910.66
2024-02-26T00:57:25.497Z,99923.13
2024-02-26T00:58:27.370Z,99918.69
2024-02-26T00:59:28.968Z,99912.91
2024-02-26T01:00:30.583Z,99919.28
2024-02-26T01:01:32.195Z,99918.41
2024-02-26T01:02:33.825Z,99923.31
2024-02-26T01:03:35.597Z,99917.44
2024-02-26T01:04:37.337Z,99925.38
2024-02-26T01:05:39.185Z,99928.97
2024-02-26T01:06:40.957Z,99918.28
2024-02-26T01:07:42.820Z,99923.72
2024-02-26T01:08:44.593Z,99923.13
2024-02-26T01:09:46.191Z,99927.63
2024-02-26T01:10:47.817Z,99914.75
2024-02-26T01:11:49.530Z,99916.44
2024-02-26T01:12:51.157Z,99918.13
2024-02-26T01:13:57.338Z,99915.94
2024-02-26T01:14:59.102Z,99918.13
2024-02-26T01:16:01.815Z,99917.28
2024-02-26T01:17:03.934Z,99910.34
2024-02-26T01:18:05.722Z,99906.25
2024-02-26T01:19:07.584Z,99914.25
2024-02-26T01:20:10.080Z,99914.13
2024-02-26T01:21:11.815Z,99907.59
2024-02-26T01:22:13.637Z,99913.75
2024-02-26T01:23:15.278Z,99914.41
2024-02-26T01:24:16.981Z,99919.56
2024-02-26T01:25:19.304Z,99914.41
2024-02-26T01:26:20.905Z,99916.50
2024-02-26T01:27:22.569Z,99914.34
2024-02-26T01:28:24.203Z,99919.94
2024-02-26T01:29:25.797Z,99917.78
2024-02-26T01:30:27.471Z,99921.50
2024-02-26T01:31:29.523Z,99922.53
2024-02-26T01:32:31.516Z,99922.03
2024-02-26T01:33:33.231Z,99924.88
2024-02-26T01:34:35.265Z,99918.84
2024-02-26T01:35:37.140Z,99921.78
2024-02-26T01:36:38.799Z,99915.06
2024-02-26T01:37:40.462Z,99916.19
2024-02-26T01:38:42.083Z,99915.56
2024-02-26T01:39:43.754Z,99913.19
2024-02-26T01:40:45.345Z,99916.78
2024-02-26T01:41:46.941Z,99909.91
2024-02-26T01:42:49.586Z,99906.66
2024-02-26T01:43:51.279Z,99912.75
2024-02-26T01:44:52.892Z,99908.91
2024-02-26T01:45:55.181Z,99912.84
2024-02-26T01:46:56.881Z,99911.69
2024-02-26T01:47:58.964Z,99910.50
2024-02-26T01:49:02.395Z,99907.16
2024-02-26T01:50:04.552Z,99906.31
2024-02-26T01:51:06.742Z,99907.06
2024-02-26T01:52:09.852Z,99907.31
2024-02-26T01:53:11.657Z,99909.22
2024-02-26T01:54:13.565Z,99905.88
2024-02-26T01:55:15.920Z,99913.91
2024-02-26T01:56:19.251Z,99908.63
2024-02-26T01:57:21.457Z,99904.81
2024-02-26T01:58:23.760Z,99908.13
2024-02-26T01:59:25.766Z,99907.56
2024-02-26T02:00:27.562Z,99914.25
2024-02-26T02:01:32.126Z,99906.25
2024-02-26T02:02:33.781Z,99902.97
2024-02-26T02:03:35.530Z,99908.22
2024-02-26T02:04:37.708Z,99912.91
2024-02-26T02:05:42.991Z,99914.34
2024-02-26T02:06:47.442Z,99910.91
2024-02-26T02:07:50.350Z,99911.66
2024-02-26T02:08:52.252Z,99908.06
2024-02-26T02:09:54.615Z,99913.31
2024-02-26T02:10:56.604Z,99911.16
2024-02-26T02:11:59.293Z,99905.97
2024-02-26T02:13:00.911Z,99908.72
2024-02-26T02:14:02.507Z,99906.25
2024-02-26T02:15:05.151Z,99907.91
2024-02-26T02:16:07.205Z,99902.06
2024-02-26T02:17:08.872Z,99901.13
2024-02-26T02:18:10.637Z,99902.09
2024-02-26T02:19:12.439Z,99897.00
2024-02-26T02:20:18.582Z,99900.25
2024-02-26T02:21:20.325Z,99898.75
2024-02-26T02:22:22.001Z,99901.63
2024-02-26T02:23:23.596Z,99905.63
2024-02-26T02:24:25.266Z,99907.22
2024-02-26T02:25:27.263Z,99908.03
2024-02-26T02:26:28.890Z,99900.97
2024-02-26T02:27:30.851Z,99915.69
2024-02-26T02:28:32.766Z,99915.19
2024-02-26T02:29:34.388Z,99905.81
2024-02-26T02:30:37.205Z,99902.34
2024-02-26T02:31:39.214Z,99906.25
2024-02-26T02:32:41.955Z,99905.44
2024-02-26T02:33:44.282Z,99905.44
2024-02-26T02:34:46.797Z,99907.69
2024-02-26T02:35:50.405Z,99906.34
2024-02-26T02:36:54.713Z,99907.94
2024-02-26T02:37:58.446Z,99912.28
2024-02-26T02:39:00.131Z,99912.44
2024-02-26T02:40:02.198Z,99920.59
2024-02-26T02:41:03.923Z,99908.28
2024-02-26T02:42:06.886Z,99915.59
2024-02-26T02:43:08.487Z,99911.19
2024-02-26T02:44:10.069Z,99912.03
2024-02-26T02:45:11.795Z,99916.81
2024-02-26T02:46:13.475Z,99917.97
2024-02-26T02:47:15.074Z,99910.91
2024-02-26T02:48:16.824Z,99914.81
2024-02-26T02:49:18.624Z,99907.41
2024-02-26T02:50:20.364Z,99904.66
2024-02-26T02:51:22.630Z,99910.75
2024-02-26T02:52:24.272Z,99907.50
2024-02-26T02:53:25.867Z,99906.91
2024-02-26T02:54:27.596Z,99908.59
2024-02-26T02:55:29.287Z,99910.50
2024-02-26T02:56:30.912Z,99914.09
2024-02-26T02:57:33.715Z,99915.69
2024-02-26T02:58:35.341Z,99916.75
2024-02-26T02:59:38.325Z,99916.53
2024-02-26T03:00:40.099Z,99909.91
2024-02-26T03:01:41.822Z,99913.25
2024-02-26T03:02:44.038Z,99917.44
2024-02-26T03:03:45.823Z,99915.75
2024-02-26T03:04:47.505Z,99916.63
2024-02-26T03:05:49.215Z,99916.63
2024-02-26T03:06:50.934Z,99913.00
2024-02-26T03:07:53.751Z,99913.59
2024-02-26T03:08:56.047Z,99924.88
2024-02-26T03:09:57.757Z,99927.28
2024-02-26T03:11:00.034Z,99926.44
2024-02-26T03:12:01.745Z,99919.00
2024-02-26T03:13:03.801Z,99918.44
2024-02-26T03:14:06.060Z,99923.69
2024-02-26T03:15:07.940Z,99915.44
2024-02-26T03:16:09.654Z,99919.00
2024-02-26T03:17:11.318Z,99917.34
2024-02-26T03:18:12.993Z,99914.00
2024-02-26T03:19:18.199Z,99914.50
2024-02-26T03:20:20.627Z,99914.16
2024-02-26T03:21:22.564Z,99913.06
2024-02-26T03:22:24.259Z,99912.72
2024-02-26T03:23:25.890Z,99918.22
2024-02-26T03:24:27.600Z,99920.16
2024-02-26T03:25:29.215Z,99910.81
2024-02-26T03:26:32.348Z,99910.69
2024-02-26T03:27:34.018Z,99907.59
2024-02-26T03:28:35.629Z,99904.84
2024-02-26T03:29:38.447Z,99908.66
2024-02-26T03:30:40.070Z,99904.75
2024-02-26T03:31:41.907Z,99898.41
2024-02-26T03:32:43.678Z,99907.53
2024-02-26T03:33:45.563Z,99905.28
2024-02-26T03:34:47.717Z,99910.19
2024-02-26T03:35:49.464Z,99906.84
2024-02-26T03:36:51.078Z,99912.44
2024-02-26T03:37:52.924Z,99918.31
2024-02-26T03:38:54.620Z,99914.72
2024-02-26T03:39:58.276Z,99928.75
2024-02-26T03:40:59.934Z,99924.31
2024-02-26T03:42:01.838Z,99927.88
2024-02-26T03:43:05.498Z,99928.97
2024-02-26T03:44:07.127Z,99931.41
2024-02-26T03:45:10.316Z,99924.19
2024-02-26T03:46:13.124Z,99932.22
2024-02-26T03:47:14.692Z,99931.63
2024-02-26T03:48:16.374Z,99938.06
2024-02-26T03:49:19.192Z,99928.50
2024-02-26T03:50:20.890Z,99927.66
2024-02-26T03:51:22.556Z,99923.81
2024-02-26T03:52:24.283Z,99931.59
2024-02-26T03:53:25.960Z,99928.00
2024-02-26T03:54:27.577Z,99930.53
2024-02-26T03:55:29.225Z,99926.56
2024-02-26T03:56:30.869Z,99924.41
2024-02-26T03:57:32.445Z,99935.09
2024-02-26T03:58:34.078Z,99936.91
2024-02-26T03:59:35.697Z,99930.69
2024-02-26T04:00:38.338Z,99936.06
2024-02-26T04:01:40.159Z,99935.97
2024-02-26T04:02:41.794Z,99939.94
2024-02-26T04:03:43.424Z,99931.91
2024-02-26T04:04:45.063Z,99934.44
2024-02-26T04:05:46.818Z,99930.38
2024-02-26T04:06:48.681Z,99937.28
2024-02-26T04:07:50.357Z,99934.28
2024-02-26T04:08:51.966Z,99941.47
2024-02-26T04:09:53.626Z,99935.97
2024-02-26T04:10:55.254Z,99941.47
2024-02-26T04:11:56.897Z,99937.88
2024-02-26T04:12:58.526Z,99942.66
2024-02-26T04:14:00.165Z,99939.44
2024-02-26T04:15:01.821Z,99944.94
2024-02-26T04:16:03.861Z,99945.53
2024-02-26T04:17:05.528Z,99948.03
2024-02-26T04:18:07.327Z,99943.84
2024-02-26T04:19:09.174Z,99948.03
2024-02-26T04:20:15.191Z,99943.13
2024-02-26T04:21:16.834Z,99949.72
2024-02-26T04:22:18.565Z,99943.84
2024-02-26T04:23:20.152Z,99950.94
2024-02-26T04:24:21.767Z,99956.44
2024-02-26T04:25:23.440Z,99956.31
2024-02-26T04:26:25.308Z,99948.78
2024-02-26T04:27:26.999Z,99956.81
2024-02-26T04:28:30.116Z,99958.59
2024-02-26T04:29:31.721Z,99963.84
2024-02-26T04:30:33.363Z,99963.63
2024-02-26T04:31:35.032Z,99967.47
2024-02-26T04:32:36.677Z,99963.84
2024-02-26T04:33:38.552Z,99966.25
2024-02-26T04:34:40.441Z,99961.03
2024-02-26T04:35:42.141Z,99966.53
2024-02-26T04:36:43.787Z,99966.25
2024-02-26T04:37:45.403Z,99963.50
2024-02-26T04:38:47.202Z,99966.03
2024-02-26T04:39:51.068Z,99967.94
2024-02-26T04:40:52.922Z,99969.28
2024-02-26T04:41:54.565Z,99965.09
2024-02-26T04:42:56.166Z,99969.38
2024-02-26T04:43:57.784Z,99962.44
2024-02-26T04:44:59.413Z,99969.03
2024-02-26T04:46:01.028Z,99966.03
2024-02-26T04:47:03.022Z,99964.34
2024-02-26T04:48:05.166Z,99973.81
2024-02-26T04:49:07.196Z,99974.78
2024-02-26T04:50:09.297Z,99972.03
2024-02-26T04:51:11.036Z,99974.66
2024-02-26T04:52:12.728Z,99974.19
2024-02-26T04:53:14.407Z,99970.22
2024-02-26T04:54:16.357Z,99969.63
2024-02-26T04:55:18.033Z,99975.97
2024-02-26T04:56:19.696Z,99977.16
2024-02-26T04:57:22.628Z,99968.44
2024-02-26T04:58:24.336Z,99970.69
2024-02-26T04:59:25.950Z,99972.97
2024-02-26T05:00:27.598Z,99978.38
2024-02-26T05:01:29.818Z,99981.13
2024-02-26T05:02:33.347Z,99985.06
2024-02-26T05:03:37.087Z,99980.97
2024-02-26T05:04:38.985Z,99979.94
2024-02-26T05:05:44.453Z,99983.75
2024-02-26T05:06:46.179Z,99986.75
2024-02-26T05:07:47.829Z,99989.97
2024-02-26T05:08:49.452Z,99983.88
2024-02-26T05:09:51.163Z,99986.25
2024-02-26T05:10:52.801Z,99995.25
2024-02-26T05:11:54.496Z,99989.97
2024-02-26T05:12:56.136Z,99991.88
2024-02-26T05:13:58.123Z,99994.88
2024-02-26T05:15:00.233Z,99993.19
2024-02-26T05:16:01.975Z,99996.66
2024-02-26T05:17:03.655Z,99998.84
2024-02-26T05:18:05.841Z,99999.88
2024-02-26T05:19:07.587Z,99998.00
2024-02-26T05:20:09.985Z,100005.28
2024-02-26T05:21:11.620Z,99998.69
2024-02-26T05:22:13.856Z,99999.91
2024-02-26T05:23:15.453Z,100001.81
2024-02-26T05:24:18.459Z,99995.47
2024-02-26T05:25:20.430Z,99999.06
2024-02-26T05:26:25.065Z,99995.47
2024-02-26T05:27:26.697Z,99994.03
2024-02-26T05:28:28.326Z,99987.69
2024-02-26T05:29:29.939Z,99993.44
2024-02-26T05:30:31.583Z,99996.06
2024-02-26T05:31:33.292Z,99993.81
2024-02-26T05:32:34.900Z,99994.75
2024-02-26T05:33:36.639Z,99999.88
2024-02-26T05:34:38.406Z,99997.00
2024-02-26T05:35:40.070Z,99993.66
2024-02-26T05:36:41.701Z,99990.31
2024-02-26T05:37:43.325Z,100001.31
2024-02-26T05:38:47.554Z,99997.25
2024-02-26T05:39:49.378Z,99998.09
2024-02-26T05:40:53.375Z,99992.59
2024-02-26T05:41:55.027Z,100001.91
2024-02-26T05:42:56.958Z,99999.41
2024-02-26T05:43:59.445Z,100000.72
2024-02-26T05:45:06.074Z,100000.72
2024-02-26T05:46:07.719Z,100002.63
2024-02-26T05:47:09.308Z,100013.84
2024-02-26T05:48:11.186Z,100006.69
2024-02-26T05:49:12.932Z,100011.59
2024-02-26T05:50:15.657Z,100013.72
2024-02-26T05:51:17.496Z,100012.06
2024-02-26T05:52:19.130Z,100012.06
2024-02-26T05:53:20.753Z,100011.22
2024-02-26T05:54:22.389Z,100021.41
2024-02-26T05:55:24.081Z,100018.66
2024-02-26T05:56:25.693Z,100024.16
2024-02-26T05:57:27.350Z,100019.47
2024-02-26T05:58:29.051Z,100023.19
2024-02-26T05:59:30.661Z,100022.72
2024-02-26T06:00:32.713Z,100024.50
2024-02-26T06:01:34.505Z,100030.16
2024-02-26T06:02:36.133Z,100026.91
2024-02-26T06:03:37.846Z,100031.13
2024-02-26T06:04:39.870Z,100023.94
2024-02-26T06:05:41.542Z,100024.31
2024-02-26T06:06:44.376Z,100025.97
2024-02-26T06:07:46.167Z,100034.84
2024-02-26T06:08:47.834Z,100026.56
2024-02-26T06:09:49.718Z,100027.66
2024-02-26T06:10:51.362Z,100038.19
2024-02-26T06:11:53.482Z,100039.03
2024-02-26T06:12:55.136Z,100037.94
2024-02-26T06:13:56.754Z,100029.94
2024-02-26T06:14:59.108Z,100033.53
2024-02-26T06:16:00.733Z,100032.69
2024-02-26T06:17:02.311Z,100038.19
2024-02-26T06:18:04.059Z,100031.59
2024-02-26T06:19:05.846Z,100035.44
2024-02-26T06:20:12.791Z,100035.19
2024-02-26T06:21:14.581Z,100038.81
2024-02-26T06:22:16.266Z,100039.84
2024-02-26T06:23:18.147Z,100039.38
2024-02-26T06:24:21.836Z,100032.22
2024-02-26T06:25:23.484Z,100049.34
2024-02-26T06:26:25.117Z,100036.41
2024-02-26T06:27:26.878Z,100039.16
2024-02-26T06:28:31.456Z,100045.13
2024-02-26T06:29:33.097Z,100053.88
2024-02-26T06:30:34.770Z,100056.03
2024-02-26T06:31:36.395Z,100055.66
2024-02-26T06:32:41.330Z,100051.81
2024-02-26T06:33:43.277Z,100055.88
2024-02-26T06:34:45.136Z,100053.38
2024-02-26T06:35:46.841Z,100060.56
2024-02-26T06:36:48.448Z,100062.22
2024-02-26T06:37:53.589Z,100056.25
2024-02-26T06:38:55.541Z,100060.69
2024-02-26T06:39:57.302Z,100064.06
2024-02-26T06:40:59.099Z,100060.22
2024-02-26T06:42:03.489Z,100054.72
2024-02-26T06:43:05.196Z,100056.16
2024-02-26T06:44:07.015Z,100059.72
2024-02-26T06:45:09.268Z,100056.75
2024-02-26T06:46:11.011Z,100059.88
2024-02-26T06:47:13.347Z,100060.94
2024-02-26T06:48:15.090Z,100066.44
2024-02-26T06:49:16.866Z,100059.88
2024-02-26T06:50:18.738Z,100064.28
2024-02-26T06:51:20.377Z,100070.63
2024-02-26T06:52:21.980Z,100065.97
2024-02-26T06:53:23.811Z,100064.66
2024-02-26T06:54:25.511Z,100064.06
2024-02-26T06:55:27.129Z,100059.59
2024-02-26T06:56:29.459Z,100072.31
2024-02-26T06:57:31.090Z,100074.25
2024-02-26T06:58:32.737Z,100071.72
2024-02-26T06:59:34.352Z,100071.72
2024-02-26T07:00:36.565Z,100079.75
2024-02-26T07:01:38.237Z,100072.31
2024-02-26T07:02:40.331Z,100074.81
2024-02-26T07:03:42.413Z,100077.34
2024-02-26T07:04:44.522Z,100080.72
2024-02-26T07:05:47.232Z,100085.97
2024-02-26T07:06:49.119Z,100082.72
2024-02-26T07:07:50.889Z,100085.25
2024-02-26T07:08:52.521Z,100083.94
2024-02-26T07:09:54.127Z,100091.13
2024-02-26T07:10:56.002Z,100087.88
2024-02-26T07:12:01.139Z,100085.75
2024-02-26T07:13:03.152Z,100093.16
2024-02-26T07:14:04.732Z,100088.28
2024-02-26T07:15:08.997Z,100085.25
2024-02-26T07:16:11.473Z,100083.13
2024-02-26T07:17:13.088Z,100092.00
2024-02-26T07:18:14.901Z,100089.22
2024-02-26T07:19:16.704Z,100089.81
2024-02-26T07:20:19.518Z,100091.50
2024-02-26T07:21:21.225Z,100083.25
2024-02-26T07:22:22.842Z,100084.91
2024-02-26T07:23:24.402Z,100089.59
2024-02-26T07:24:26.054Z,100084.91
2024-02-26T07:25:27.654Z,100090.19
2024-02-26T07:26:31.433Z,100089.94
2024-02-26T07:27:33.123Z,100088.28
2024-02-26T07:28:35.050Z,100086.13
2024-02-26T07:29:36.654Z,100085.63
2024-02-26T07:30:38.272Z,100087.31
2024-02-26T07:31:39.923Z,100083.47
2024-02-26T07:32:41.589Z,100086.00
2024-02-26T07:33:43.309Z,100082.16
2024-02-26T07:34:45.923Z,100085.50
2024-02-26T07:35:47.800Z,100086.94
2024-02-26T07:36:49.422Z,100084.81
2024-02-26T07:37:51.496Z,100087.06
2024-02-26T07:38:55.311Z,100083.00
2024-02-26T07:39:56.978Z,100082.75
2024-02-26T07:41:03.156Z,100082.25
2024-02-26T07:42:05.803Z,100077.13
2024-02-26T07:43:07.483Z,100086.94
2024-02-26T07:44:10.167Z,100082.88
2024-02-26T07:45:12.441Z,100079.97
2024-02-26T07:46:14.178Z,100069.06
2024-02-26T07:47:15.795Z,100072.41
2024-02-26T07:48:17.561Z,100067.00
2024-02-26T07:49:19.229Z,100071.78
2024-02-26T07:50:21.035Z,100082.66
2024-02-26T07:51:23.645Z,100074.50
2024-02-26T07:52:25.455Z,100081.22
2024-02-26T07:53:27.070Z,100076.88
2024-02-26T07:54:28.745Z,100075.06
2024-02-26T07:55:30.440Z,100074.56
2024-02-26T07:56:32.050Z,100076.59
2024-02-26T07:57:34.900Z,100075.59
2024-02-26T07:58:36.712Z,100073.78
2024-02-26T07:59:38.505Z,100076.41
2024-02-26T08:00:40.102Z,100074.81
2024-02-26T08:01:42.779Z,100079.34
2024-02-26T08:02:45.257Z,100073.34
2024-02-26T08:03:46.975Z,100077.28
2024-02-26T08:04:48.662Z,100081.78
2024-02-26T08:05:50.307Z,100083.22
2024-02-26T08:06:52.084Z,100084.66
2024-02-26T08:07:53.777Z,100081.41
2024-02-26T08:08:58.273Z,100086.41
2024-02-26T08:09:59.903Z,100087.59
2024-02-26T08:11:01.491Z,100079.91
2024-02-26T08:12:03.382Z,100089.38
2024-02-26T08:13:07.858Z,100086.09
2024-02-26T08:14:09.525Z,100085.34
2024-02-26T08:15:12.422Z,100092.91
2024-02-26T08:16:14.181Z,100099.34
2024-02-26T08:17:15.785Z,100098.84
2024-02-26T08:18:17.679Z,100088.97
2024-02-26T08:19:20.062Z,100094.34
2024-02-26T08:20:21.795Z,100100.50
2024-02-26T08:21:23.532Z,100103.63
2024-02-26T08:22:25.202Z,100092.38
2024-02-26T08:23:27.328Z,100102.69
2024-02-26T08:24:29.326Z,100100.56
2024-02-26T08:25:30.942Z,100099.56
2024-02-26T08:26:32.542Z,100095.53
2024-02-26T08:27:34.320Z,100093.44
2024-02-26T08:28:38.022Z,100097.69
2024-02-26T08:29:39.632Z,100096.06
2024-02-26T08:30:41.216Z,100092.56
2024-02-26T08:31:42.857Z,100091.00
2024-02-26T08:32:51.908Z,100092.75
2024-02-26T08:33:54.555Z,100099.75
2024-02-26T08:34:56.536Z,100096.78
2024-02-26T08:35:58.235Z,100094.09
2024-02-26T08:36:59.848Z,100103.63
2024-02-26T08:38:01.436Z,100101.47
2024-02-26T08:39:03.193Z,100092.16
2024-02-26T08:40:07.168Z,100091.13
2024-02-26T08:41:09.904Z,100091.50
2024-02-26T08:42:11.570Z,100090.44
2024-02-26T08:43:13.202Z,100093.03
2024-02-26T08:44:14.855Z,100097.22
2024-02-26T08:45:16.604Z,100097.03
2024-02-26T08:46:18.306Z,100090.44
2024-02-26T08:47:19.927Z,100084.41
2024-02-26T08:48:21.657Z,100091.66
2024-02-26T08:49:24.948Z,100089.78
2024-02-26T08:50:26.765Z,100082.91
2024-02-26T08:51:28.436Z,100089.91
2024-02-26T08:52:30.136Z,100084.41
2024-02-26T08:53:38.132Z,100084.19
2024-02-26T08:54:44.229Z,100084.78
2024-02-26T08:55:45.838Z,100084.81
2024-02-26T08:56:47.545Z,100087.38
2024-02-26T08:57:49.607Z,100076.03
2024-02-26T08:58:54.459Z,100078.88
2024-02-26T08:59:56.179Z,100078.91
2024-02-26T09:00:57.852Z,100075.03
2024-02-26T09:01:59.488Z,100080.91
2024-02-26T09:03:05.152Z,100085.09
2024-02-26T09:04:07.413Z,100085.97
2024-02-26T09:05:09.129Z,100087.66
2024-02-26T09:06:11.063Z,100083.81
2024-02-26T09:07:12.752Z,100085.75
2024-02-26T09:08:14.425Z,100088.56
2024-02-26T09:09:16.025Z,100091.91
2024-02-26T09:10:17.791Z,100095.53
2024-02-26T09:11:19.381Z,100091.38
2024-02-26T09:12:21.126Z,100099.72
2024-02-26T09:13:22.812Z,100093.38
2024-02-26T09:14:26.719Z,100091.44
2024-02-26T09:15:30.046Z,100097.53
2024-02-26T09:16:31.704Z,100088.97
2024-02-26T09:17:33.435Z,100095.09
2024-02-26T09:18:35.136Z,100096.19
2024-02-26T09:19:36.893Z,100092.88
2024-02-26T09:20:38.551Z,100093.72
2024-02-26T09:21:44.209Z,100101.50
2024-02-26T09:22:45.828Z,100090.13
2024-02-26T09:23:47.416Z,100093.19
2024-02-26T09:24:50.757Z,100099.88
2024-02-26T09:25:52.346Z,100099.84
2024-02-26T09:26:53.991Z,100100.44
2024-02-26T09:27:55.648Z,100106.28
2024-02-26T09:28:57.272Z,100102.97
2024-02-26T09:29:58.914Z,100104.34
2024-02-26T09:31:00.566Z,100102.69
2024-02-26T09:32:02.219Z,100096.00
2024-02-26T09:33:04.055Z,100101.88
2024-02-26T09:34:06.102Z,100099.63
2024-02-26T09:35:08.223Z,100105.47
2024-02-26T09:36:11.929Z,100099.63
2024-02-26T09:37:20.968Z,100106.03
2024-02-26T09:38:24.782Z,100103.50
2024-02-26T09:39:26.440Z,100101.88
2024-02-26T09:40:28.938Z,100098.25
2024-02-26T09:41:31.695Z,100098.53
2024-02-26T09:42:34.477Z,100094.91
2024-02-26T09:43:40.775Z,100097.97
2024-02-26T09:44:44.632Z,100101.00
2024-02-26T09:45:46.519Z,100097.41
2024-02-26T09:46:50.858Z,100100.75
2024-02-26T09:47:52.909Z,100097.41
2024-02-26T09:48:55.188Z,100106.31
2024-02-26T09:49:57.918Z,100102.13
2024-02-26T09:50:59.572Z,100101.56
2024-02-26T09:52:03.489Z,100101.28
2024-02-26T09:53:06.512Z,100103.22
2024-02-26T09:54:10.859Z,100105.19
2024-02-26T09:55:12.523Z,100096.25
2024-02-26T09:56:14.442Z,100101.53
2024-02-26T09:57:18.295Z,100103.47
2024-02-26T09:58:20.291Z,100109.31
2024-02-26T09:59:22.241Z,100105.97
2024-02-26T10:00:26.272Z,100110.44
2024-02-26T10:01:28.446Z,100102.34
2024-02-26T10:02:31.442Z,100113.19
2024-02-26T10:03:41.127Z,100106.50
2024-02-26T10:04:46.900Z,100109.28
2024-02-26T10:05:51.602Z,100111.50
2024-02-26T10:06:53.974Z,100113.72
2024-02-26T10:07:58.620Z,100117.06
2024-02-26T10:09:01.338Z,100115.94
2024-02-26T10:10:04.432Z,100119.28
2024-02-26T10:11:07.695Z,100116.75
2024-02-26T10:12:16.904Z,100120.66
2024-02-26T10:13:18.721Z,100118.38
2024-02-26T10:14:20.329Z,100122.28
2024-02-26T10:15:21.961Z,100116.16
2024-02-26T10:16:23.891Z,100120.03
2024-02-26T10:17:26.182Z,100117.78
2024-02-26T10:18:29.144Z,100120.56
2024-02-26T10:19:34.469Z,100114.72
2024-02-26T10:20:37.528Z,100111.38
2024-02-26T10:21:39.202Z,100113.03
2024-02-26T10:22:40.829Z,100118.03
2024-02-26T10:23:44.776Z,100115.81
2024-02-26T10:24:48.187Z,100119.16
2024-02-26T10:25:56.651Z,100117.75
2024-02-26T10:26:58.861Z,100119.97
2024-02-26T10:28:04.584Z,100122.16
2024-02-26T10:29:06.172Z,100126.91
2024-02-26T10:30:24.468Z,100130.75
2024-02-26T10:31:26.445Z,100128.22
2024-02-26T10:32:28.114Z,100123.19
2024-02-26T10:33:31.537Z,100126.25
2024-02-26T10:34:36.215Z,100125.66
2024-02-26T10:35:41.554Z,100121.19
2024-02-26T10:36:52.297Z,100126.75
2024-02-26T10:37:55.698Z,100121.72
2024-02-26T10:38:57.368Z,100120.00
2024-02-26T10:39:59.018Z,100118.84
2024-02-26T10:41:00.660Z,100119.13
2024-02-26T10:42:07.856Z,100122.44
2024-02-26T10:43:09.485Z,100121.03
2024-02-26T10:44:13.729Z,100115.44
2024-02-26T10:45:16.769Z,100121.28
2024-02-26T10:46:19.032Z,100118.19
2024-02-26T10:47:20.814Z,100121.53
2024-02-26T10:48:22.819Z,100117.59
2024-02-26T10:49:25.091Z,100115.38
2024-02-26T10:50:26.929Z,100108.13
2024-02-26T10:51:30.767Z,100120.94
2024-02-26T10:52:34.529Z,100110.84
2024-02-26T10:53:37.449Z,100109.75
2024-02-26T10:54:42.428Z,100110.31
2024-02-26T10:55:49.779Z,100111.97
2024-02-26T10:56:52.023Z,100106.66
2024-02-26T10:57:54.332Z,100113.63
2024-02-26T10:58:59.826Z,100111.09
2024-02-26T11:00:05.382Z,100111.63
2024-02-26T11:01:07.575Z,100107.16
2024-02-26T11:02:11.169Z,100114.13
2024-02-26T11:03:14.867Z,100112.72
2024-02-26T11:04:18.301Z,100109.63
2024-02-26T11:05:20.646Z,100111.28
2024-02-26T11:06:23.319Z,100104.31
2024-02-26T11:07:26.550Z,100111.25
2024-02-26T11:08:30.243Z,100103.41
2024-02-26T11:09:33.812Z,100114.53
2024-02-26T11:10:37.152Z,100112.28
2024-02-26T11:11:38.752Z,100107.75
2024-02-26T11:12:41.220Z,100113.31
2024-02-26T11:13:46.325Z,100109.41
2024-02-26T11:14:49.963Z,100114.41
2024-02-26T11:15:52.758Z,100113.25
2024-02-26T11:16:56.795Z,100113.81
2024-02-26T11:17:59.243Z,100110.69
2024-02-26T11:19:02.496Z,100119.34
2024-02-26T11:20:05.159Z,100118.22
2024-02-26T11:21:09.519Z,100117.34
2024-02-26T11:22:18.770Z,100116.50
2024-02-26T11:23:26.249Z,100119.53
2024-02-26T11:24:28.246Z,100115.59
2024-02-26T11:25:29.887Z,100118.09
2024-02-26T11:26:31.883Z,100121.72
2024-02-26T11:27:42.551Z,100119.16
2024-02-26T11:28:46.040Z,100108.31
2024-02-26T11:29:54.027Z,100109.97
2024-02-26T11:30:56.309Z,100118.88
2024-02-26T11:32:01.082Z,100112.47
2024-02-26T11:33:03.202Z,100120.84
2024-02-26T11:34:05.119Z,100117.19
2024-02-26T11:35:08.480Z,100121.38
2024-02-26T11:36:15.030Z,100110.19
2024-02-26T11:37:18.024Z,100111.88
2024-02-26T11:38:24.731Z,100116.88
2024-02-26T11:39:26.868Z,100118.53
2024-02-26T11:40:29.081Z,100112.34
2024-02-26T11:41:31.163Z,100120.72
2024-02-26T11:42:34.031Z,100111.22
2024-02-26T11:44:02.335Z,100118.47
2024-02-26T11:45:04.578Z,100115.09
2024-02-26T11:46:25.317Z,100106.41
2024-02-26T11:47:28.303Z,100112.56
2024-02-26T11:48:30.121Z,100112.78
2024-02-26T11:49:32.791Z,100111.63
2024-02-26T11:50:40.252Z,100113.31
2024-02-26T11:51:43.142Z,100107.72
2024-02-26T11:53:23.824Z,100107.13
2024-02-26T11:54:45.202Z,100111.00
2024-02-26T11:55:46.813Z,100107.91
2024-02-26T11:56:49.070Z,100107.63
2024-02-26T11:57:50.666Z,100111.78
2024-02-26T11:58:58.857Z,100111.50
2024-02-26T12:00:14.866Z,100110.06
2024-02-26T12:01:41.484Z,100114.53
2024-02-26T12:02:59.304Z,100107.50
2024-02-26T12:04:03.151Z,100116.44